createdAt,value
2023-03-16T00:03:59.149Z,0.04
2023-03-16T00:08:56.127Z,0.04
2023-03-16T00:13:55.918Z,0.04
2023-03-16T00:18:57.477Z,0.05
2023-03-16T00:23:54.566Z,0.05
2023-03-16T00:28:54.215Z,0.04
2023-03-16T00:33:54.082Z,0.04
2023-03-16T00:38:52.796Z,0.04
2023-03-16T00:43:41.491Z,0.04
2023-03-16T00:48:40.849Z,0.04
2023-03-16T00:53:41.091Z,0.04
2023-03-16T00:58:38.161Z,0.04
2023-03-16T01:03:38.186Z,0.04
2023-03-16T01:08:37.644Z,0.04
2023-03-16T01:13:38.801Z,0.04
2023-03-16T01:18:35.268Z,0.04
2023-03-16T01:23:35.593Z,0.04
2023-03-16T01:28:34.932Z,0.04
2023-03-16T01:33:34.921Z,0.04
2023-03-16T01:38:32.413Z,0.04
2023-03-16T01:43:32.534Z,0.05
2023-03-16T01:48:32.077Z,0.04
2023-03-16T01:53:31.709Z,0.04
2023-03-16T01:58:30.797Z,0.04
2023-03-16T01:59:53.197Z,0.04
2023-03-16T02:04:53.123Z,0.04
2023-03-16T02:09:52.346Z,0.04
2023-03-16T02:14:53.792Z,0.04
2023-03-16T02:19:49.243Z,0.04
2023-03-16T02:24:49.734Z,0.04
2023-03-16T02:29:48.635Z,0.04
2023-03-16T02:35:00.265Z,0.05
2023-03-16T02:39:57.159Z,0.05
2023-03-16T02:44:59.009Z,0.04
2023-03-16T02:49:58.928Z,0.05
2023-03-16T02:54:55.872Z,0.05
2023-03-16T02:59:13.784Z,0.05
2023-03-16T03:04:13.078Z,0.05
2023-03-16T03:09:13.151Z,0.05
2023-03-16T03:14:12.244Z,0.04
2023-03-16T03:19:11.047Z,0.04
2023-03-16T03:24:10.712Z,0.04
2023-03-16T03:29:12.187Z,0.04
2023-03-16T03:34:08.530Z,0.05
2023-03-16T03:39:08.140Z,0.04
2023-03-16T03:44:07.772Z,0.04
2023-03-16T03:49:07.359Z,0.05
2023-03-16T03:54:04.934Z,0.04
2023-03-16T03:58:51.653Z,0.04
2023-03-16T04:03:51.020Z,0.04
2023-03-16T04:08:50.750Z,0.04
2023-03-16T04:13:50.486Z,0.04
2023-03-16T04:18:49.820Z,0.05
2023-03-16T04:23:49.789Z,0.04
2023-03-16T04:28:49.785Z,0.04
2023-03-16T04:33:57.770Z,0.04
2023-03-16T04:38:57.110Z,0.05
2023-03-16T04:43:57.759Z,0.05
2023-03-16T04:48:56.680Z,0.05
2023-03-16T04:53:56.869Z,0.05
2023-03-16T04:58:56.778Z,0.04
2023-03-16T05:04:00.585Z,0.05
2023-03-16T05:08:54.619Z,0.05
2023-03-16T05:13:54.478Z,0.05
2023-03-16T05:18:56.185Z,0.06
2023-03-16T05:23:53.376Z,0.07
2023-03-16T05:28:41.927Z,0.1
2023-03-16T05:33:41.616Z,0.17
2023-03-16T05:38:44.003Z,0.24
2023-03-16T05:43:39.612Z,0.25
2023-03-16T05:48:39.360Z,0.35
2023-03-16T05:53:38.523Z,0.47
2023-03-16T05:58:38.994Z,0.61
2023-03-16T06:00:00.336Z,0.64
2023-03-16T06:04:59.578Z,0.8
2023-03-16T06:09:59.420Z,0.97
2023-03-16T06:15:00.292Z,1.16
2023-03-16T06:19:56.614Z,1.36
2023-03-16T06:24:56.879Z,1.55
2023-03-16T06:29:56.174Z,1.74
2023-03-16T06:34:56.304Z,1.98
2023-03-16T06:39:53.930Z,2.23
2023-03-16T06:44:54.286Z,2.46
2023-03-16T06:49:53.248Z,2.67
2023-03-16T06:54:53.447Z,2.9
2023-03-16T06:58:59.714Z,3.6
2023-03-16T07:04:00.585Z,4.33
2023-03-16T07:09:00.419Z,4.82
2023-03-16T07:14:00.428Z,5.22
2023-03-16T07:19:02.178Z,5.62
2023-03-16T07:23:58.827Z,5.97
2023-03-16T07:29:00.311Z,6.47
2023-03-16T07:33:59.003Z,6.97
2023-03-16T07:38:58.514Z,7.46
2023-03-16T07:43:58.813Z,7.9
2023-03-16T07:48:59.667Z,8.26
2023-03-16T07:53:59.471Z,8.71
2023-03-16T07:58:57.358Z,9.12
2023-03-16T08:03:57.628Z,9.65
2023-03-16T08:08:57.149Z,9.97
2023-03-16T08:13:56.764Z,9.95
2023-03-16T08:18:56.512Z,11.1
2023-03-16T08:23:56.133Z,11.38
2023-03-16T08:28:57.021Z,12.16
2023-03-16T08:33:56.200Z,12.52
2023-03-16T08:39:12.187Z,12.85
2023-03-16T08:43:54.404Z,13.48
2023-03-16T08:48:54.962Z,13.92
2023-03-16T08:53:54.745Z,14.55
2023-03-16T08:58:55.041Z,15.64
2023-03-16T09:03:53.096Z,15.28
2023-03-16T09:08:52.854Z,14.32
2023-03-16T09:13:54.847Z,14.08
2023-03-16T09:18:53.757Z,15.97
2023-03-16T09:23:49.792Z,16.59
2023-03-16T09:28:50.050Z,17.14
2023-03-16T09:33:49.212Z,17.72
2023-03-16T09:38:49.895Z,17.73
2023-03-16T09:43:57.103Z,18.45
2023-03-16T09:48:56.700Z,17.76
2023-03-16T09:53:56.309Z,17.03
2023-03-16T09:58:55.377Z,17.65
2023-03-16T10:03:55.768Z,18.46
2023-03-16T10:08:55.482Z,20.48
2023-03-16T10:13:56.215Z,22.31
2023-03-16T10:18:53.803Z,18.53
2023-03-16T10:23:53.538Z,21.64
2023-03-16T10:28:54.129Z,21.63
2023-03-16T10:33:41.342Z,22.18
2023-03-16T10:38:41.608Z,22.44
2023-03-16T10:43:41.188Z,22.68
2023-03-16T10:48:39.966Z,23.75
2023-03-16T10:53:38.715Z,23.91
2023-03-16T10:58:38.883Z,22.91
2023-03-16T11:00:00.740Z,23.06
2023-03-16T11:05:13.024Z,23.42
2023-03-16T11:23:02.893Z,18.36
2023-03-16T11:29:40.150Z,18.08
2023-03-16T11:33:57.463Z,23.25
2023-03-16T11:38:58.300Z,15.97
2023-03-16T11:43:56.947Z,15.08
2023-03-16T11:48:58.383Z,15.63
2023-03-16T11:53:55.212Z,18.15
2023-03-16T11:58:54.978Z,17.91
2023-03-16T12:03:56.485Z,18.08
2023-03-16T12:08:53.935Z,20.13
2023-03-16T12:13:53.116Z,23.74
2023-03-16T12:18:53.905Z,24.03
2023-03-16T12:23:42.159Z,22.42
2023-03-16T12:28:41.970Z,23.34
2023-03-16T12:33:41.308Z,22.66
2023-03-16T12:38:41.472Z,21.38
2023-03-16T12:43:40.520Z,22.21
2023-03-16T12:48:40.264Z,22.61
2023-03-16T12:53:40.099Z,21.2
2023-03-16T12:58:39.915Z,21.53
2023-03-16T13:00:00.939Z,21.91
2023-03-16T13:05:00.915Z,21.76
2023-03-16T13:10:00.323Z,21.34
2023-03-16T13:15:01.897Z,21.05
2023-03-16T13:19:57.557Z,19.94
2023-03-16T13:24:57.591Z,20.03
2023-03-16T13:29:56.758Z,17.31
2023-03-16T13:34:56.861Z,19.06
2023-03-16T13:39:54.024Z,18.92
2023-03-16T13:44:54.235Z,19.37
2023-03-16T13:49:54.103Z,18.77
2023-03-16T13:54:54.080Z,17
2023-03-16T13:58:59.571Z,15.55
2023-03-16T14:03:59.161Z,17.1
2023-03-16T14:08:58.955Z,15.99
2023-03-16T14:13:58.524Z,15.4
2023-03-16T14:18:59.564Z,12.74
2023-03-16T14:23:55.683Z,12.65
2023-03-16T14:28:55.474Z,11.22
2023-03-16T14:33:55.385Z,10.64
2023-03-16T14:38:54.536Z,11.13
2023-03-16T14:43:54.124Z,11.33
2023-03-16T14:48:54.815Z,11.24
2023-03-16T14:53:54.406Z,9.22
2023-03-16T14:58:53.945Z,8.5
2023-03-16T15:03:53.476Z,8.37
2023-03-16T15:08:53.523Z,7.85
2023-03-16T15:13:55.357Z,7.13
2023-03-16T15:18:50.384Z,6.61
2023-03-16T15:23:50.818Z,6.12
2023-03-16T15:28:49.194Z,5.91
2023-03-16T15:33:48.883Z,5.83
2023-03-16T15:38:56.948Z,5.67
2023-03-16T15:43:55.805Z,5.63
2023-03-16T15:48:56.095Z,5.24
2023-03-16T15:53:54.516Z,4.89
2023-03-16T15:58:54.801Z,4.48
2023-03-16T16:00:16.043Z,4.41
2023-03-16T16:05:15.096Z,3.98
2023-03-16T16:10:14.574Z,3.6
2023-03-16T16:15:14.582Z,3.28
2023-03-16T16:20:13.944Z,2.98
2023-03-16T16:25:13.005Z,2.66
2023-03-16T16:30:12.394Z,2.39
2023-03-16T16:35:12.627Z,2.15
2023-03-16T16:40:11.553Z,1.88
2023-03-16T16:45:11.041Z,1.63
2023-03-16T16:50:09.958Z,1.44
2023-03-16T16:55:10.147Z,1.25
2023-03-16T16:59:31.187Z,1.07
2023-03-16T17:04:32.745Z,0.88
2023-03-16T17:09:29.034Z,0.71
2023-03-16T17:14:28.724Z,0.56
2023-03-16T17:19:28.119Z,0.42
2023-03-16T17:24:27.537Z,0.31
2023-03-16T17:29:24.957Z,0.26
2023-03-16T17:34:25.384Z,0.2
2023-03-16T17:39:24.697Z,0.12
2023-03-16T17:44:25.832Z,0.08
2023-03-16T17:49:22.779Z,0.06
2023-03-16T17:54:22.411Z,0.05
2023-03-16T17:59:09.442Z,0.04
2023-03-16T18:04:09.286Z,0.04
2023-03-16T18:09:08.034Z,0.04
2023-03-16T18:14:08.533Z,0.04
2023-03-16T18:19:07.937Z,0.04
2023-03-16T18:24:08.611Z,0.04
2023-03-16T18:29:04.851Z,0.04
2023-03-16T18:34:04.778Z,0.04
2023-03-16T18:39:04.920Z,0.04
2023-03-16T18:44:04.011Z,0.04
2023-03-16T18:49:01.589Z,0.04
2023-03-16T18:54:00.987Z,0.04
2023-03-16T18:58:58.399Z,0.04
2023-03-16T19:04:00.535Z,0.04
2023-03-16T19:08:57.173Z,0.04
2023-03-16T19:13:57.178Z,0.04
2023-03-16T19:18:58.502Z,0.04
2023-03-16T19:23:56.102Z,0.04
2023-03-16T19:28:55.774Z,0.04
2023-03-16T19:33:57.175Z,0.04
2023-03-16T19:38:54.107Z,0.04
2023-03-16T19:43:53.715Z,0.04
2023-03-16T19:48:53.605Z,0.04
2023-03-16T19:53:41.089Z,0.04
2023-03-16T19:58:41.107Z,0.04
2023-03-16T20:03:40.455Z,0.04
2023-03-16T20:08:39.684Z,0.04
2023-03-16T20:13:38.796Z,0.04
2023-03-16T20:18:38.602Z,0.04
2023-03-16T20:23:38.704Z,0.04
2023-03-16T20:28:38.262Z,0.04
2023-03-16T20:33:38.755Z,0.04
2023-03-16T20:38:34.865Z,0.04
2023-03-16T20:43:35.394Z,0.04
2023-03-16T20:48:34.744Z,0.04
2023-03-16T20:53:34.375Z,0.04
2023-03-16T20:58:33.809Z,0.04
2023-03-16T20:59:54.784Z,0.04
2023-03-16T21:04:54.736Z,0.04
2023-03-16T21:09:55.320Z,0.04
2023-03-16T21:14:52.395Z,0.04
2023-03-16T21:19:51.874Z,0.04
2023-03-16T21:24:51.062Z,0.04
2023-03-16T21:29:51.369Z,0.03
2023-03-16T21:34:58.944Z,0.04
2023-03-16T21:40:01.635Z,0.04
2023-03-16T21:44:58.471Z,0.04
2023-03-16T21:49:56.925Z,0.04
2023-03-16T21:54:57.095Z,0.04
2023-03-16T21:58:53.840Z,0.04
2023-03-16T22:03:54.218Z,0.04
2023-03-16T22:08:51.580Z,0.04
2023-03-16T22:13:51.036Z,0.04
2023-03-16T22:18:50.898Z,0.04
2023-03-16T22:23:52.737Z,0.04
2023-03-16T22:28:59.128Z,0.04
2023-03-16T22:33:58.505Z,0.04
2023-03-16T22:38:58.968Z,0.04
2023-03-16T22:43:56.755Z,0.04
2023-03-16T22:48:56.565Z,0.04
2023-03-16T22:53:56.377Z,0.04
2023-03-16T22:58:55.262Z,0.04
2023-03-16T23:03:55.322Z,0.04
2023-03-16T23:08:56.141Z,0.04
2023-03-16T23:13:57.053Z,0.04
2023-03-16T23:18:54.970Z,0.04
2023-03-16T23:24:06.237Z,0.04
2023-03-16T23:28:54.759Z,0.04
2023-03-16T23:33:42.608Z,0.04
2023-03-16T23:38:41.908Z,0.04
2023-03-16T23:43:41.457Z,0.04
2023-03-16T23:48:40.827Z,0.04
2023-03-16T23:53:38.151Z,0.04
2023-03-16T23:58:37.671Z,0.04
2023-03-16T23:59:59.005Z,0.03
